createdAt,value
2019-03-30T00:00:03.073Z,6.5
2019-03-30T00:05:03.182Z,6.4
2019-03-30T00:10:02.786Z,6.4
2019-03-30T00:15:02.903Z,6.3
2019-03-30T00:20:02.982Z,6.2
2019-03-30T00:25:03.111Z,6.3
2019-03-30T00:30:03.257Z,6.2
2019-03-30T00:35:02.491Z,6.3
2019-03-30T00:40:05.628Z,6.2
2019-03-30T00:45:03.221Z,6.2
2019-03-30T00:50:03.288Z,6
2019-03-30T00:55:02.445Z,5.8
2019-03-30T01:00:02.581Z,5.8
2019-03-30T01:05:02.720Z,5.7
2019-03-30T01:10:03.356Z,5.6
2019-03-30T01:15:02.381Z,5.8
2019-03-30T01:20:03.516Z,5.7
2019-03-30T01:25:02.632Z,5.6
2019-03-30T01:30:02.727Z,5.6
2019-03-30T01:35:02.747Z,5.6
2019-03-30T01:40:04.961Z,5.8
2019-03-30T01:45:02.405Z,5.8
2019-03-30T01:50:16.043Z,5.6
2019-03-30T01:55:05.046Z,5.4
2019-03-30T02:00:03.102Z,5.4
2019-03-30T02:05:03.167Z,5.2
2019-03-30T02:10:02.787Z,5.1
2019-03-30T02:15:02.915Z,5.1
2019-03-30T02:20:03.003Z,5
2019-03-30T02:25:03.033Z,4.9
2019-03-30T02:30:03.103Z,4.9
2019-03-30T02:35:05.718Z,4.8
2019-03-30T02:40:03.381Z,4.8
2019-03-30T02:45:02.537Z,4.8
2019-03-30T02:50:02.599Z,4.9
2019-03-30T02:55:02.723Z,4.9
2019-03-30T03:00:02.959Z,4.8
2019-03-30T03:05:03.129Z,4.8
2019-03-30T03:10:02.762Z,4.9
2019-03-30T03:15:05.463Z,4.7
2019-03-30T03:20:02.627Z,4.8
2019-03-30T03:25:02.745Z,4.7
2019-03-30T03:30:02.937Z,4.6
2019-03-30T03:35:05.512Z,4.5
2019-03-30T03:40:03.133Z,4.5
2019-03-30T03:45:02.329Z,4.4
2019-03-30T03:50:02.506Z,4.3
2019-03-30T03:55:02.640Z,4.3
2019-03-30T04:00:02.740Z,4.2
2019-03-30T04:05:02.905Z,4.2
2019-03-30T04:10:02.492Z,4.2
2019-03-30T04:15:02.632Z,4.1
2019-03-30T04:20:02.862Z,4.3
2019-03-30T04:25:03.002Z,4.3
2019-03-30T04:30:03.094Z,4.3
2019-03-30T04:35:03.163Z,4.3
2019-03-30T04:40:02.801Z,4.1
2019-03-30T04:45:02.955Z,3.8
2019-03-30T04:50:03.215Z,3.7
2019-03-30T04:55:03.184Z,3.7
2019-03-30T05:00:03.324Z,3.6
2019-03-30T05:05:02.449Z,3.4
2019-03-30T05:10:03.075Z,3.4
2019-03-30T05:15:03.231Z,3.2
2019-03-30T05:20:02.432Z,3.1
2019-03-30T05:25:02.478Z,3.1
2019-03-30T05:30:02.589Z,3
2019-03-30T05:35:02.733Z,3
2019-03-30T05:40:03.208Z,3
2019-03-30T05:45:03.293Z,3.2
2019-03-30T05:50:02.463Z,3.3
2019-03-30T05:55:03.219Z,3.5
2019-03-30T06:00:03.377Z,3.5
2019-03-30T06:05:03.509Z,3.6
2019-03-30T06:10:07.525Z,3.6
2019-03-30T06:15:02.587Z,3.6
2019-03-30T06:20:05.335Z,3.8
2019-03-30T06:25:02.827Z,3.8
2019-03-30T06:30:02.896Z,4
2019-03-30T06:35:02.898Z,4
2019-03-30T06:40:07.573Z,4.2
2019-03-30T06:45:02.635Z,4.2
2019-03-30T06:50:02.783Z,4.4
2019-03-30T06:55:02.850Z,4.5
2019-03-30T07:00:02.955Z,4.5
2019-03-30T07:05:02.982Z,4.5
2019-03-30T07:10:02.663Z,1.4
2019-03-30T07:15:02.716Z,4.8
2019-03-30T07:20:13.052Z,5.1
2019-03-30T07:25:03.121Z,5.1
2019-03-30T07:30:03.268Z,5.3
2019-03-30T07:35:02.403Z,5.5
2019-03-30T07:40:03.104Z,5.7
2019-03-30T07:45:05.792Z,6.3
2019-03-30T07:50:03.135Z,6.3
2019-03-30T07:55:03.206Z,6.6
2019-03-30T08:00:03.354Z,6.8
2019-03-30T08:05:02.486Z,7.1
2019-03-30T08:10:03.144Z,7.4
2019-03-30T08:15:03.290Z,7.7
2019-03-30T08:20:02.516Z,7.9
2019-03-30T08:25:05.244Z,8.4
2019-03-30T08:30:02.373Z,8.4
2019-03-30T08:35:02.523Z,8.7
2019-03-30T08:40:03.130Z,9
2019-03-30T08:45:03.326Z,9.3
2019-03-30T08:50:05.009Z,9.6
2019-03-30T08:55:02.666Z,9.6
2019-03-30T09:00:05.449Z,10.2
2019-03-30T09:05:02.936Z,10.2
2019-03-30T09:10:02.741Z,10.5
2019-03-30T09:15:02.956Z,10.7
2019-03-30T09:20:03.155Z,10.9
2019-03-30T09:25:03.351Z,11.1
2019-03-30T09:30:02.523Z,11.3
2019-03-30T09:35:02.643Z,11.5
2019-03-30T09:40:03.195Z,11.8
2019-03-30T09:45:05.874Z,12.1
2019-03-30T09:50:03.116Z,12.1
2019-03-30T09:55:02.788Z,12.2
2019-03-30T10:00:02.945Z,12.4
2019-03-30T10:05:03.129Z,12.7
2019-03-30T10:10:02.812Z,12.8
2019-03-30T10:15:03.013Z,12.9
2019-03-30T10:20:04.448Z,13
2019-03-30T10:25:04.959Z,13.4
2019-03-30T10:30:03.084Z,13.4
2019-03-30T10:35:03.265Z,13.5
2019-03-30T10:40:02.808Z,13.7
2019-03-30T10:45:02.997Z,13.8
2019-03-30T10:50:03.154Z,14
2019-03-30T10:55:02.350Z,14.2
2019-03-30T11:00:02.576Z,14.2
2019-03-30T11:05:02.770Z,14.4
2019-03-30T11:10:02.429Z,14.4
2019-03-30T11:15:02.609Z,14.7
2019-03-30T11:20:02.863Z,14.8
2019-03-30T11:25:07.602Z,14.9
2019-03-30T11:30:03.231Z,15
2019-03-30T11:35:02.483Z,15.2
2019-03-30T11:40:03.122Z,15.2
2019-03-30T11:45:03.315Z,15.2
2019-03-30T11:50:02.539Z,15.4
2019-03-30T11:55:02.726Z,15.6
2019-03-30T12:00:02.961Z,15.6
2019-03-30T12:05:02.672Z,15.8
2019-03-30T12:10:02.400Z,16
2019-03-30T12:15:05.153Z,16.2
2019-03-30T12:20:02.442Z,16.2
2019-03-30T12:25:02.624Z,16.4
2019-03-30T12:30:02.975Z,16.6
2019-03-30T12:35:03.148Z,16.7
2019-03-30T12:40:02.825Z,16.9
2019-03-30T12:45:02.990Z,16.9
2019-03-30T12:50:03.201Z,17.6
2019-03-30T12:55:02.381Z,18.8
2019-03-30T13:00:02.595Z,19.4
2019-03-30T13:05:02.859Z,19.7
2019-03-30T13:10:02.544Z,20.3
2019-03-30T13:15:02.955Z,20.5
2019-03-30T13:20:03.256Z,20.5
2019-03-30T13:25:02.621Z,20
2019-03-30T13:30:02.811Z,20.3
2019-03-30T13:35:03.105Z,20.9
2019-03-30T13:40:02.806Z,22.1
2019-03-30T13:45:05.579Z,23.5
2019-03-30T13:50:02.853Z,23.5
2019-03-30T13:55:03.103Z,23.7
2019-03-30T14:00:04.896Z,24.2
2019-03-30T14:05:05.117Z,24.6
2019-03-30T14:10:02.813Z,24.5
2019-03-30T14:15:03.225Z,24.1
2019-03-30T14:20:02.500Z,23.9
2019-03-30T14:25:02.786Z,23.6
2019-03-30T14:30:03.260Z,23.6
2019-03-30T14:35:02.540Z,23.4
2019-03-30T14:40:03.412Z,23.1
2019-03-30T14:45:02.685Z,23
2019-03-30T14:50:02.964Z,22.9
2019-03-30T14:55:03.339Z,23.1
2019-03-30T15:00:02.711Z,23.4
2019-03-30T15:05:03.171Z,23.4
2019-03-30T15:10:02.850Z,23.4
2019-03-30T15:15:03.233Z,23.2
2019-03-30T15:20:02.534Z,22.9
2019-03-30T15:25:02.808Z,22.6
2019-03-30T15:30:03.055Z,22.4
2019-03-30T15:35:02.426Z,22.3
2019-03-30T15:40:03.132Z,21.9
2019-03-30T15:45:02.501Z,21.6
2019-03-30T15:50:02.662Z,21.4
2019-03-30T15:55:02.977Z,21.2
2019-03-30T16:00:07.029Z,21.1
2019-03-30T16:05:02.467Z,21
2019-03-30T16:10:03.140Z,21.1
2019-03-30T16:15:02.394Z,21
2019-03-30T16:20:02.837Z,21
2019-03-30T16:25:03.077Z,20.7
2019-03-30T16:30:03.281Z,20.2
2019-03-30T16:35:02.495Z,19.8
2019-03-30T16:40:03.170Z,19.4
2019-03-30T16:45:04.925Z,18.8
2019-03-30T16:50:08.193Z,18.5
2019-03-30T16:55:02.417Z,18.5
2019-03-30T17:00:02.615Z,18.4
2019-03-30T17:05:02.926Z,18.3
2019-03-30T17:10:02.691Z,18.1
2019-03-30T17:15:02.941Z,17.9
2019-03-30T17:20:03.257Z,17.8
2019-03-30T17:25:02.506Z,17.6
2019-03-30T17:30:02.637Z,17.5
2019-03-30T17:35:02.896Z,17.3
2019-03-30T17:40:02.684Z,17.1
2019-03-30T17:45:02.937Z,16.9
2019-03-30T17:50:03.159Z,16.7
2019-03-30T17:55:02.394Z,16.6
2019-03-30T18:00:02.589Z,16.4
2019-03-30T18:05:02.833Z,16.2
2019-03-30T18:10:07.554Z,15.9
2019-03-30T18:15:02.913Z,15.9
2019-03-30T18:20:02.922Z,15.8
2019-03-30T18:25:03.151Z,15.6
2019-03-30T18:30:05.804Z,15.2
2019-03-30T18:35:02.489Z,15.3
2019-03-30T18:40:03.116Z,15.2
2019-03-30T18:45:02.343Z,15
2019-03-30T18:50:02.547Z,14.8
2019-03-30T18:55:02.754Z,14.7
2019-03-30T19:00:02.982Z,14.6
2019-03-30T19:05:02.775Z,14.5
2019-03-30T19:10:02.497Z,14.4
2019-03-30T19:15:02.669Z,14.3
2019-03-30T19:20:02.923Z,14.1
2019-03-30T19:25:03.132Z,14.1
2019-03-30T19:30:03.334Z,14
2019-03-30T19:35:02.524Z,13.8
2019-03-30T19:40:03.194Z,13.6
2019-03-30T19:45:02.360Z,13.4
2019-03-30T19:50:07.633Z,13.1
2019-03-30T19:55:02.751Z,13.1
2019-03-30T20:00:02.937Z,13.1
2019-03-30T20:05:03.129Z,13
2019-03-30T20:10:02.813Z,12.9
2019-03-30T20:15:02.623Z,12.9
2019-03-30T20:20:02.923Z,12.7
2019-03-30T20:25:03.097Z,12.6
2019-03-30T20:30:02.368Z,12.5
2019-03-30T20:35:05.053Z,12.2
2019-03-30T20:40:02.728Z,12.3
2019-03-30T20:45:02.885Z,12.1
2019-03-30T20:50:03.159Z,12
2019-03-30T20:55:03.348Z,12
2019-03-30T21:00:02.449Z,11.9
2019-03-30T21:05:05.103Z,11.8
2019-03-30T21:10:02.816Z,11.8
2019-03-30T21:15:02.998Z,11.7
2019-03-30T21:20:13.422Z,11.6
2019-03-30T21:25:02.415Z,11.6
2019-03-30T21:30:02.565Z,11.5
2019-03-30T21:35:02.771Z,11.4
2019-03-30T21:40:02.406Z,11.4
2019-03-30T21:45:05.581Z,11.3
2019-03-30T21:50:02.634Z,11.3
2019-03-30T21:55:02.829Z,11.3
2019-03-30T22:00:09.512Z,11.2
2019-03-30T22:05:03.129Z,11.1
2019-03-30T22:10:02.814Z,11
2019-03-30T22:15:02.978Z,10.8
2019-03-30T22:20:15.897Z,10.5
2019-03-30T22:25:02.401Z,10.5
2019-03-30T22:30:02.573Z,10.4
2019-03-30T22:35:02.442Z,10.3
2019-03-30T22:40:03.122Z,10.2
2019-03-30T22:45:05.818Z,10.1
2019-03-30T22:50:02.923Z,10.1
2019-03-30T22:55:02.763Z,10
2019-03-30T23:00:08.046Z,10
2019-03-30T23:05:03.113Z,10
2019-03-30T23:10:02.779Z,10
2019-03-30T23:15:02.952Z,9.9
2019-03-30T23:20:03.217Z,9.8
2019-03-30T23:25:02.388Z,9.6
2019-03-30T23:30:02.578Z,9.5
2019-03-30T23:35:02.781Z,9.4
2019-03-30T23:40:02.473Z,9.3
2019-03-30T23:45:02.611Z,9.2
2019-03-30T23:50:02.829Z,9.1
2019-03-30T23:55:03.039Z,9.1
